Latest Weather Observations for Eucla

IDW60801

Issued at 8:04 am WST Thursday 23 February 2017 (issued every 30 minutes, with the page automatically refreshed every 10 minutes)

About weather observations | Map of weather stations | Latest weather observations for WA | Other Formats
Station Details ID: 011003 Name: EUCLA Lat: -31.68 Lon: 128.90 Height: 93.1 m
Data from the previous 72 hours. | See also: Recent months at Eucla
Date/Time
WST
Temp
°C
App
Temp
°C
Dew
Point
°C
Rel
Hum
%
Delta-T
°C
Wind Press
QNH
hPa
Press
MSL
hPa
Rain since
9am
mm
Dir  Spd
km/h
Gust
km/h
Spd
kts
Gust
kts
23/08:00am 21.1 19.7 12.3 57 5.0 S 11 17 6 9 1023.9 1023.6 0.0
23/07:30am 20.4 19.7 12.1 59 4.6 SW 7 11 4 6 1023.6 1023.3 0.0
23/07:00am 18.9 17.8 11.9 64 3.9 W 9 11 5 6 1023.3 1023.0 0.0
23/06:30am 16.9 16.5 12.4 75 2.5 WNW 6 7 3 4 1022.9 1022.6 0.0
23/06:00am 12.3 11.1 10.2 87 1.1 NNW 7 9 4 5 1022.6 1022.2 0.0
23/05:30am 10.1 8.4 8.5 90 0.8 W 7 9 4 5 1022.2 1021.8 0.0
23/05:00am 10.4 8.8 8.8 90 0.8 WNW 7 7 4 4 1022.1 1021.7 0.0
23/04:30am 11.1 9.4 9.9 92 0.6 WSW 9 9 5 5 1021.7 1021.3 0.0
23/04:00am 9.8 8.2 7.9 88 0.9 W 6 7 3 4 1021.3 1020.9 0.0
23/03:30am 10.8 9.2 8.6 86 1.1 W 7 9 4 5 1021.0 1020.6 0.0
23/03:00am 12.8 11.2 10.3 85 1.3 W 9 9 5 5 1020.8 1020.4 0.0
23/02:30am 13.5 12.2 11.2 86 1.2 W 9 9 5 5 1020.7 1020.3 0.0
23/02:00am 13.9 13.0 11.2 84 1.4 W 7 9 4 5 1020.7 1020.3 0.0
23/01:30am 13.8 12.9 11.3 85 1.3 W 7 9 4 5 1020.8 1020.4 0.0
23/01:00am 12.4 11.4 10.3 87 1.1 W 6 7 3 4 1020.9 1020.5 0.0
23/12:30am 13.0 11.5 10.5 85 1.3 W 9 9 5 5 1020.9 1020.5 0.0
23/12:00am 13.1 11.8 10.1 82 1.5 W 7 9 4 5 1021.0 1020.6 0.0
 
Date/Time
WST
Temp
°C
App
Temp
°C
Dew
Point
°C
Rel
Hum
%
Delta-T
°C
Wind Press
QNH
hPa
Press
MSL
hPa
Rain since
9am
mm
Dir  Spd
km/h
Gust
km/h
Spd
kts
Gust
kts
22/11:30pm 14.7 13.9 10.9 78 2.0 W 6 7 3 4 1021.0 1020.6 0.0
22/11:00pm 15.9 15.0 11.5 75 2.4 WSW 7 11 4 6 1020.9 1020.5 0.0
22/10:30pm 16.3 14.9 11.0 71 2.8 SW 9 13 5 7 1020.9 1020.5 0.0
22/10:00pm 16.7 15.4 11.2 70 3.0 SW 9 11 5 6 1021.0 1020.6 0.0
22/09:30pm 16.8 15.5 11.3 70 3.0 SSW 9 15 5 8 1021.2 1020.8 0.0
22/09:00pm 17.4 15.8 11.7 69 3.1 SSW 11 17 6 9 1021.2 1020.8 0.0
22/08:30pm 17.6 16.2 12.3 71 2.9 SSW 11 19 6 10 1021.0 1020.6 0.0
22/08:00pm 17.6 16.0 11.6 68 3.3 SSW 11 15 6 8 1020.8 1020.4 0.0
22/07:30pm 18.3 16.6 12.5 69 3.2 S 13 20 7 11 1020.4 1020.0 0.0
22/07:00pm 18.1 16.4 12.3 69 3.2 S 13 19 7 10 1020.1 1019.7 0.0
22/06:30pm 18.5 16.1 12.7 69 3.3 S 17 28 9 15 1019.6 1019.2 0.0
22/06:00pm 18.7 16.3 12.5 67 3.5 SSW 17 28 9 15 1018.9 1018.6 0.0
22/05:30pm 19.4 16.9 12.4 64 3.9 SSW 17 28 9 15 1018.5 1018.2 0.0
22/05:00pm 20.5 17.1 12.5 60 4.5 SSW 22 32 12 17 1018.2 1017.9 0.0
22/04:30pm 21.2 18.1 12.1 56 5.1 SSW 20 33 11 18 1017.7 1017.4 0.0
22/04:00pm 21.3 17.5 11.3 53 5.5 S 22 33 12 18 1017.5 1017.2 0.0
22/03:30pm 21.7 18.0 11.4 52 5.7 SSW 22 33 12 18 1017.3 1017.0 0.0
22/03:00pm 22.7 19.5 12.0 50 6.1 SSW 20 33 11 18 1017.2 1016.9 0.0
22/02:30pm 22.4 18.7 11.5 50 6.1 S 22 32 12 17 1017.0 1016.7 0.0
22/02:00pm 22.4 18.1 10.9 48 6.4 S 24 37 13 20 1017.0 1016.7 0.0
22/01:30pm 23.1 19.8 11.5 48 6.5 SSW 20 32 11 17 1016.9 1016.6 0.0
22/01:00pm 22.5 19.2 11.6 50 6.1 SSW 20 35 11 19 1016.8 1016.5 0.0
22/12:30pm 23.2 19.6 11.9 49 6.4 S 22 33 12 18 1016.9 1016.6 0.0
22/12:00pm 23.1 19.2 9.5 42 7.4 S 20 33 11 18 1016.9 1016.6 0.0
22/11:30am 22.9 18.8 10.0 44 7.1 SSW 22 32 12 17 1016.9 1016.6 0.0
22/11:00am 23.7 18.6 7.8 36 8.4 SSW 24 35 13 19 1016.8 1016.5 0.0
22/10:30am 23.3 19.0 9.3 41 7.6 SSW 22 37 12 20 1016.7 1016.4 0.0
22/10:00am 22.9 20.1 8.6 40 7.6 WSW 13 28 7 15 1016.7 1016.4 0.0
22/09:30am 21.9 18.3 9.8 46 6.6 WSW 19 30 10 16 1016.8 1016.5 0.0
22/09:00am 21.6 18.5 10.4 49 6.1 WSW 17 30 9 16 1016.6 1016.3 1.2
22/08:30am 20.9 18.1 11.5 55 5.2 W 17 26 9 14 1016.2 1015.9 1.2
22/08:00am 18.2 15.3 9.5 57 4.6 WNW 15 24 8 13 1016.0 1015.7 1.0
22/07:30am 17.3 13.3 9.2 59 4.2 WNW 20 30 11 16 1015.7 1015.4 1.0
22/07:00am 15.8 12.2 8.3 61 3.8 NW 17 28 9 15 1015.5 1015.2 1.0
22/06:30am 14.7 10.6 7.7 63 3.5 NW 19 26 10 14 1015.3 1015.0 1.0
22/06:00am 14.3 10.6 7.8 65 3.2 NW 17 26 9 14 1014.8 1014.5 1.0
22/05:30am 13.5 10.5 7.9 69 2.8 NW 13 20 7 11 1014.5 1014.2 1.0
22/05:00am 13.2 10.0 8.3 72 2.4 NW 15 24 8 13 1014.0 1013.7 1.0
22/04:30am 13.2 10.0 8.5 73 2.4 NW 15 20 8 11 1013.4 1013.1 1.0
22/04:00am 14.2 11.3 8.2 67 3.0 WNW 13 19 7 10 1013.2 1012.8 1.0
22/03:30am 15.3 12.0 8.1 62 3.6 W 15 22 8 12 1012.8 1012.4 1.0
22/03:00am 14.7 11.1 8.2 65 3.3 W 17 28 9 15 1012.5 1012.1 1.0
22/02:30am 14.7 10.8 8.6 67 3.1 WSW 19 30 10 16 1012.3 1011.9 1.0
22/02:00am 15.2 11.3 8.7 65 3.3 WSW 19 28 10 15 1012.0 1011.6 1.0
22/01:30am 15.6 12.5 8.8 64 3.5 W 15 26 8 14 1011.8 1011.4 1.0
22/01:00am 15.4 12.4 9.3 67 3.2 W 15 26 8 14 1011.7 1011.3 1.0
22/12:30am 15.2 12.0 9.8 70 2.8 WSW 17 24 9 13 1011.5 1011.1 1.0
22/12:00am 15.5 12.3 10.1 70 2.8 WSW 17 26 9 14 1011.5 1011.1 1.0
 
Date/Time
WST
Temp
°C
App
Temp
°C
Dew
Point
°C
Rel
Hum
%
Delta-T
°C
Wind Press
QNH
hPa
Press
MSL
hPa
Rain since
9am
mm
Dir  Spd
km/h
Gust
km/h
Spd
kts
Gust
kts
21/11:30pm 16.5 12.6 9.4 63 3.7 WSW 20 35 11 19 1011.4 1011.0 1.0
21/11:00pm 16.8 13.9 10.9 68 3.2 SW 17 30 9 16 1011.3 1010.9 1.0
21/10:30pm 16.9 13.0 10.7 67 3.3 SW 22 39 12 21 1011.1 1010.7 1.0
21/10:00pm 16.8 13.8 12.5 76 2.4 SW 20 35 11 19 1011.3 1010.9 1.0
21/09:30pm 16.2 12.6 12.9 81 1.8 SW 24 39 13 21 1010.6 1010.2 1.0
21/09:00pm 17.7 13.7 13.0 74 2.6 SW 26 39 14 21 1010.9 1010.5 0.0
21/08:30pm 17.7 13.0 14.8 83 1.7 SW 33 52 18 28 1010.3 1009.9 0.0
21/08:00pm 18.4 15.1 16.0 86 1.4 SW 28 50 15 27 1009.6 1009.2 0.0
21/07:30pm 18.7 15.2 15.4 81 1.9 SSW 28 50 15 27 1008.3 1007.9 0.0
21/07:00pm 19.6 15.5 14.8 74 2.8 SW 30 48 16 26 1008.3 1007.9 0.0
21/06:30pm 20.4 15.7 15.8 75 2.8 SW 35 57 19 31 1007.2 1006.9 0.0
21/06:00pm 20.9 16.9 16.3 75 2.8 SW 32 52 17 28 1006.5 1006.2 0.0
21/05:30pm 21.5 17.1 17.5 78 2.5 SW 37 56 20 30 1005.8 1005.5 0.0
21/05:27pm 22.1 18.1 17.5 75 2.9 SW 35 56 19 30 1005.3 1005.0 0.0
21/05:16pm 24.7 21.0 15.9 58 5.4 W 30 54 16 29 1003.3 1002.9 0.0
21/05:12pm 28.2 25.2 14.8 44 8.1 NW 24 46 13 25 1002.9 1002.5 0.0
21/05:00pm 33.9 28.9 4.6 16 15.6 NW 20 35 11 19 1001.3 1000.9 0.0
21/04:43pm 36.3 29.0 -0.2 10 18.2 NNW 28 52 15 28 1000.9 1000.5 0.0
21/04:30pm 36.7 30.0 -1.3 9 18.7 NNW 24 37 13 20 1000.8 1000.4 0.0
21/04:00pm 36.7 29.2 -1.3 9 18.7 NNW 28 50 15 27 1001.1 1000.7 0.0
21/03:30pm 37.0 28.6 -1.1 9 18.8 NNW 33 54 18 29 1001.3 1000.9 0.0
21/03:10pm 37.9 29.0 -2.0 8 19.5 NNW 35 56 19 30 1001.3 1000.9 0.0
21/03:00pm 38.3 30.0 -1.7 8 19.8 NW 32 50 17 27 1001.5 1001.1 0.0
21/02:30pm 38.1 30.5 -1.9 8 19.6 NNW 28 46 15 25 1001.8 1001.4 0.0
21/02:00pm 37.9 29.9 -2.0 8 19.6 NNW 30 48 16 26 1002.3 1001.9 0.0
21/01:38pm 37.7 30.1 -2.2 8 19.4 NNW 28 46 15 25 1003.0 1002.6 0.0
21/01:30pm 37.5 29.5 -2.3 8 19.3 NNW 30 43 16 23 1003.2 1002.8 0.0
21/01:00pm 36.7 29.8 -2.9 8 19.0 NNW 24 33 13 18 1003.8 1003.4 0.0
21/12:30pm 36.3 28.8 -1.6 9 18.5 NNW 28 48 15 26 1004.4 1004.1 0.0
21/12:25pm 36.3 28.2 -3.2 8 18.8 NNW 30 48 16 26 1004.6 1004.3 0.0
21/12:00pm 36.1 28.2 -1.7 9 18.4 NNW 30 46 16 25 1005.0 1004.7 0.0
21/11:48am 36.1 28.0 -3.3 8 18.7 NNW 30 50 16 27 1005.3 1005.0 0.0
21/11:30am 35.3 26.9 -2.3 9 18.0 NNW 32 43 17 23 1005.4 1005.1 0.0
21/11:14am 35.5 27.9 -2.2 9 18.1 N 28 46 15 25 1005.6 1005.3 0.0
21/11:00am 35.0 27.0 -2.6 9 17.9 N 30 41 16 22 1006.0 1005.7 0.0
21/10:30am 34.2 26.7 -1.7 10 17.2 N 28 41 15 22 1006.4 1006.1 0.0
21/10:05am 35.0 27.5 -1.1 10 17.6 N 28 46 15 25 1006.9 1006.6 0.0
21/10:00am 35.7 27.6 -0.6 10 17.9 N 32 48 17 26 1007.0 1006.7 0.0
21/09:30am 33.2 25.5 0.0 12 16.3 N 30 48 16 26 1007.6 1007.3 0.0
21/09:14am 32.7 25.5 0.7 13 15.8 N 28 50 15 27 1007.9 1007.5 0.0
21/09:00am 31.4 24.1 2.6 16 14.6 N 30 46 16 25 1008.2 1007.8 0.0
21/08:30am 29.2 22.7 4.6 21 12.7 N 28 41 15 22 1008.6 1008.2 0.0
21/08:00am 27.6 21.2 5.2 24 11.6 N 28 41 15 22 1009.1 1008.7 0.0
21/07:30am 25.4 19.8 7.1 31 9.6 N 26 37 14 20 1009.4 1009.0 0.0
21/07:00am 21.8 16.5 8.3 42 7.1 NNE 26 37 14 20 1009.7 1009.3 0.0
21/06:30am 19.6 14.3 8.6 49 5.8 NNE 26 37 14 20 1010.1 1009.7 0.0
21/06:00am 16.9 12.3 9.6 62 3.8 NNE 24 37 13 20 1010.4 1010.0 0.0
21/05:30am 15.5 10.9 9.8 69 3.0 NNE 24 33 13 18 1010.3 1009.9 0.0
21/05:00am 15.3 11.1 9.9 70 2.8 NNE 22 30 12 16 1010.5 1010.1 0.0
21/04:30am 15.3 11.2 10.1 71 2.7 NNE 22 30 12 16 1010.5 1010.1 0.0
21/04:00am 15.4 11.3 10.2 71 2.7 NNE 22 32 12 17 1010.5 1010.1 0.0
21/03:30am 15.8 11.8 10.3 70 2.9 NNE 22 37 12 20 1010.6 1010.2 0.0
21/03:00am 16.1 11.7 10.4 69 3.0 NNE 24 33 13 18 1010.8 1010.4 0.0
21/02:30am 16.3 12.3 10.4 68 3.1 NNE 22 32 12 17 1010.9 1010.5 0.0
21/02:00am 16.5 12.5 10.6 68 3.2 NNE 22 33 12 18 1011.0 1010.6 0.0
21/01:30am 16.3 12.7 10.6 69 3.0 NNE 20 30 11 16 1011.5 1011.1 0.0
21/01:00am 16.4 12.8 10.7 69 3.1 NNE 20 30 11 16 1011.7 1011.3 0.0
21/12:30am 16.6 13.0 10.5 67 3.3 NE 20 28 11 15 1011.8 1011.4 0.0
21/12:00am 16.5 12.7 9.9 65 3.5 NE 20 32 11 17 1012.0 1011.6 0.0
 
Date/Time
WST
Temp
°C
App
Temp
°C
Dew
Point
°C
Rel
Hum
%
Delta-T
°C
Wind Press
QNH
hPa
Press
MSL
hPa
Rain since
9am
mm
Dir  Spd
km/h
Gust
km/h
Spd
kts
Gust
kts
20/11:30pm 16.3 12.9 10.6 69 3.0 NE 19 32 10 17 1012.3 1011.9 0.0
20/11:00pm 16.2 12.9 10.9 71 2.8 NE 19 26 10 14 1012.6 1012.2 0.0
20/10:30pm 16.2 13.7 11.2 72 2.7 NE 15 24 8 13 1012.9 1012.5 0.0
20/10:00pm 16.8 14.0 11.5 71 2.9 NE 17 24 9 13 1013.1 1012.7 0.0
20/09:30pm 17.0 14.3 11.7 71 2.9 NE 17 24 9 13 1013.6 1013.3 0.0
20/09:00pm 17.3 14.7 12.0 71 2.9 NE 17 26 9 14 1014.1 1013.8 0.0
20/08:30pm 17.5 15.1 12.6 73 2.7 ENE 17 26 9 14 1014.3 1014.0 0.0
20/08:00pm 17.9 15.2 13.0 73 2.8 ENE 19 26 10 14 1014.2 1013.9 0.0
20/07:30pm 18.2 15.6 13.7 75 2.6 ENE 20 30 11 16 1014.1 1013.8 0.0
20/07:00pm 18.5 16.0 14.0 75 2.6 E 20 33 11 18 1014.0 1013.7 0.0
20/06:30pm 18.8 16.5 14.1 74 2.7 E 19 30 10 16 1013.9 1013.6 0.0
20/06:00pm 19.2 16.6 13.8 71 3.1 E 20 33 11 18 1014.0 1013.7 0.0
20/05:30pm 19.9 17.0 14.0 69 3.4 E 22 33 12 18 1013.9 1013.6 0.0
20/05:00pm 20.7 17.4 13.9 65 3.9 E 24 37 13 20 1013.7 1013.4 0.0
20/04:30pm 21.3 18.0 14.0 63 4.3 E 24 35 13 19 1013.9 1013.6 0.0
20/04:00pm 21.5 18.2 13.9 62 4.4 E 24 35 13 19 1013.9 1013.6 0.0
20/03:30pm 21.9 18.9 13.8 60 4.7 ESE 22 33 12 18 1014.0 1013.7 0.0
20/03:00pm 22.0 18.5 13.4 58 5.0 ESE 24 33 13 18 1013.9 1013.6 0.0
20/02:30pm 22.2 18.1 12.7 55 5.4 ESE 26 35 14 19 1014.0 1013.7 0.0
20/02:00pm 22.5 19.1 12.4 52 5.8 ESE 22 33 12 18 1014.3 1014.0 0.0
20/01:30pm 23.2 19.8 12.5 51 6.1 ESE 22 35 12 19 1014.5 1014.2 0.0
20/01:00pm 23.6 20.1 12.3 49 6.5 SE 22 32 12 17 1014.7 1014.4 0.0
20/12:30pm 23.1 19.5 11.8 49 6.4 ESE 22 30 12 16 1015.1 1014.8 0.0
20/12:00pm 23.1 19.9 11.8 49 6.4 SE 20 30 11 16 1015.5 1015.2 0.0
20/11:30am 23.7 19.7 11.7 47 6.8 ESE 24 30 13 16 1015.9 1015.6 0.0
20/11:00am 23.8 20.6 11.8 47 6.8 SE 20 30 11 16 1016.2 1015.9 0.0
20/10:30am 24.7 23.2 10.6 41 7.9 NNW 9 17 5 9 1016.6 1016.3 0.0
20/10:00am 24.6 21.7 8.1 35 8.8 NNW 13 20 7 11 1017.2 1016.9 0.0
20/09:30am 23.3 20.4 8.2 38 8.0 NNE 13 20 7 11 1017.6 1017.3 0.0
20/09:00am 21.8 18.9 8.3 42 7.1 NNE 13 20 7 11 1018.3 1018.0 0.0
20/08:30am 20.9 17.3 8.5 45 6.5 NNE 17 26 9 14 1018.7 1018.4 0.0

Other Formats:

Comma delimited format used in spreadsheet applications
http://www.bom.gov.au/fwo/IDW60801/IDW60801.94647.axf

JavaScript Object Notation format (JSON) in row-major order
http://www.bom.gov.au/fwo/IDW60801/IDW60801.94647.json